Time;durP1;ratioP1;P1;durP2;ratioP2;P2;SDS_P1;SDS_P2;PMS_P1;PMS_P2;Temp;Humidity;BMP_temperature;BMP_pressure;BME280_temperature;BME280_humidity;BME280_pressure;Samples;Min_cycle;Max_cycle;Signal;HPM_P1;HPM_P2
2022/09/25 00:00:54;;;;;;;5.60;2.42;;;11.20;99.90;;;;;;5088938;28;20557;-37
2022/09/25 00:03:22;;;;;;;3.45;2.28;;;11.20;99.90;;;;;;5081078;28;20024;-37
2022/09/25 00:05:48;;;;;;;11.68;2.47;;;11.20;99.90;;;;;;5092735;28;20032;-46
2022/09/25 00:08:16;;;;;;;2.28;2.08;;;11.20;99.90;;;;;;5084868;28;20441;-36
2022/09/25 00:10:44;;;;;;;4.43;2.08;;;11.20;99.90;;;;;;5089154;28;20027;-40
2022/09/25 00:13:10;;;;;;;;;;;11.20;99.90;;;;;;5091081;28;20494;-39
2022/09/25 00:15:36;;;;;;;9.63;2.80;;;11.20;99.90;;;;;;5091212;28;19908;-37
2022/09/25 00:18:02;;;;;;;3.03;2.30;;;11.20;99.90;;;;;;5091579;28;20035;-36
2022/09/25 00:20:27;;;;;;;9.18;2.47;;;11.20;99.90;;;;;;5092081;28;20028;-39
2022/09/25 00:22:53;;;;;;;7.15;2.65;;;11.20;99.90;;;;;;5083085;28;20047;-36
2022/09/25 00:25:19;;;;;;;10.25;2.95;;;11.30;99.90;;;;;;5090487;28;20731;-37
2022/09/25 00:27:47;;;;;;;4.05;2.67;;;11.20;99.90;;;;;;5092320;28;20504;-38
2022/09/25 00:30:13;;;;;;;3.97;2.25;;;11.30;99.90;;;;;;5086639;28;20017;-39
2022/09/25 00:32:39;;;;;;;4.25;2.10;;;11.30;99.90;;;;;;5085853;28;20152;-40
2022/09/25 00:35:05;;;;;;;2.85;1.85;;;11.20;99.90;;;;;;5091486;28;20071;-38
2022/09/25 00:37:35;;;;;;;3.20;1.98;;;11.20;99.90;;;;;;5075392;28;20020;-40
2022/09/25 00:40:02;;;;;;;2.42;1.95;;;11.10;99.90;;;;;;5085025;28;20031;-40
2022/09/25 00:42:28;;;;;;;7.00;2.83;;;11.10;99.90;;;;;;5088037;28;20039;-36
2022/09/25 00:45:17;;;;;;;2.55;2.35;;;11.00;99.90;;;;;;5091067;28;20028;-58
2022/09/25 00:48:01;;;;;;;8.68;2.17;;;11.00;99.90;;;;;;5091228;28;20488;-38
2022/09/25 00:50:40;;;;;;;4.43;2.00;;;11.00;99.90;;;;;;5081031;28;20028;-36
2022/09/25 00:53:39;;;;;;;4.93;1.83;;;11.00;99.90;;;;;;5076567;28;20024;-38
2022/09/25 00:56:07;;;;;;;6.80;2.13;;;11.00;99.90;;;;;;5072761;28;20484;-34
2022/09/25 00:58:35;;;;;;;1.67;1.55;;;11.00;99.90;;;;;;5085798;28;20020;-40
2022/09/25 01:01:01;;;;;;;2.92;2.00;;;10.90;99.90;;;;;;5083711;28;20468;-39
2022/09/25 01:03:26;;;;;;;3.70;1.85;;;10.90;99.90;;;;;;5088251;28;20025;-39
2022/09/25 01:05:54;;;;;;;2.50;1.80;;;10.90;99.90;;;;;;5075229;28;20062;-41
2022/09/25 01:08:24;;;;;;;2.92;2.03;;;10.90;99.90;;;;;;5089712;28;20044;-42
2022/09/25 01:10:50;;;;;;;7.53;2.92;;;10.90;99.90;;;;;;5088162;28;20088;-42
2022/09/25 01:13:18;;;;;;;2.85;1.98;;;10.80;99.90;;;;;;5089847;28;20567;-41
2022/09/25 01:15:50;;;;;;;3.23;2.10;;;10.80;99.90;;;;;;5082370;28;20030;-39
2022/09/25 01:18:37;;;;;;;1.98;1.77;;;10.80;99.90;;;;;;5091852;28;20288;-37
2022/09/25 01:21:20;;;;;;;4.47;2.28;;;10.70;99.90;;;;;;5092277;28;20165;-38
2022/09/25 01:24:05;;;;;;;3.20;2.40;;;10.70;99.90;;;;;;5089826;28;20047;-36
2022/09/25 01:26:55;;;;;;;4.03;2.47;;;10.70;99.90;;;;;;5074528;28;20052;-38
2022/09/25 01:29:24;;;;;;;3.08;2.20;;;10.70;99.90;;;;;;5086857;28;20024;-37
2022/09/25 01:32:16;;;;;;;5.53;2.03;;;10.70;99.90;;;;;;5083599;28;20035;-36
2022/09/25 01:34:51;;;;;;;3.72;1.92;;;10.60;99.90;;;;;;5072226;28;20520;-38
2022/09/25 01:37:37;;;;;;;6.82;2.40;;;10.60;99.90;;;;;;5086325;28;20020;-39
2022/09/25 01:40:24;;;;;;;2.60;1.92;;;10.60;99.90;;;;;;5087687;28;20028;-40
2022/09/25 01:43:15;;;;;;;5.13;2.13;;;10.60;99.90;;;;;;5090140;28;20492;-40
2022/09/25 01:45:49;;;;;;;3.92;2.25;;;10.50;99.90;;;;;;5078799;28;20107;-38
2022/09/25 01:48:18;;;;;;;7.95;1.95;;;10.50;99.90;;;;;;5089959;28;20035;-38
2022/09/25 01:50:53;;;;;;;8.55;2.05;;;10.50;99.90;;;;;;5088841;28;20025;-38
2022/09/25 01:53:26;;;;;;;4.07;2.90;;;10.50;99.90;;;;;;5078891;28;20556;-40
2022/09/25 01:55:57;;;;;;;3.72;2.10;;;10.60;99.90;;;;;;5083401;28;20447;-39
2022/09/25 01:58:30;;;;;;;4.45;2.20;;;10.60;99.90;;;;;;5091010;28;20074;-40
2022/09/25 02:01:03;;;;;;;4.60;2.00;;;10.60;99.90;;;;;;5087645;28;20032;-38
2022/09/25 02:03:45;;;;;;;5.80;2.42;;;10.60;99.90;;;;;;5086715;28;20028;-39
2022/09/25 02:06:18;;;;;;;3.95;1.70;;;10.60;99.90;;;;;;5092218;28;20047;-39
2022/09/25 02:09:00;;;;;;;3.00;1.90;;;10.50;99.90;;;;;;5086436;28;20028;-39
2022/09/25 02:11:31;;;;;;;2.22;1.52;;;10.50;99.90;;;;;;5054619;28;20024;-40
2022/09/25 02:14:03;;;;;;;7.72;1.90;;;10.50;99.90;;;;;;5085251;28;20024;-39
2022/09/25 02:16:36;;;;;;;1.90;1.65;;;10.50;99.90;;;;;;5084074;28;20032;-41
2022/09/25 02:22:10;;;;;;;2.03;1.85;;;10.50;99.90;;;;;;5075241;28;20101;-48
2022/09/25 02:24:38;;;;;;;4.95;1.88;;;10.50;99.90;;;;;;5054842;28;20041;-41
2022/09/25 02:27:04;;;;;;;4.50;1.90;;;10.50;99.90;;;;;;5080059;28;20028;-39
2022/09/25 02:29:30;;;;;;;3.38;1.58;;;10.40;99.90;;;;;;5077616;28;20538;-40
2022/09/25 02:31:58;;;;;;;2.80;1.88;;;10.40;99.90;;;;;;5078036;28;20025;-42
2022/09/25 02:34:24;;;;;;;3.15;1.98;;;10.40;99.90;;;;;;5090641;28;20537;-35
2022/09/25 02:36:51;;;;;;;3.63;1.73;;;10.40;99.90;;;;;;5087612;28;20032;-37
2022/09/25 02:39:20;;;;;;;6.25;2.28;;;10.30;99.90;;;;;;5090443;28;20055;-40
2022/09/25 02:41:55;;;;;;;2.00;1.80;;;10.30;99.90;;;;;;5091442;28;20640;-39
2022/09/25 02:44:35;;;;;;;3.92;2.30;;;10.30;99.90;;;;;;5093219;28;20028;-37
2022/09/25 02:47:13;;;;;;;11.55;1.80;;;10.30;99.90;;;;;;5079320;28;20028;-41
2022/09/25 02:49:44;;;;;;;;;;;10.30;99.90;;;;;;5089119;28;20734;-35
2022/09/25 02:52:12;;;;;;;6.05;1.67;;;10.30;99.90;;;;;;5092237;28;20368;-40
2022/09/25 02:54:46;;;;;;;5.95;1.75;;;10.30;99.90;;;;;;5093753;28;20070;-37
2022/09/25 02:57:33;;;;;;;6.13;2.00;;;10.20;99.90;;;;;;5086249;28;20020;-35
2022/09/25 03:00:04;;;;;;;7.35;1.83;;;10.20;99.90;;;;;;5060386;28;20109;-39
2022/09/25 03:02:33;;;;;;;5.47;1.95;;;10.30;99.90;;;;;;5089213;28;20048;-39
2022/09/25 03:05:00;;;;;;;7.47;2.10;;;10.30;99.90;;;;;;5094674;28;20024;-35
2022/09/25 03:07:26;;;;;;;2.35;2.08;;;10.20;99.90;;;;;;5078899;28;20036;-38
2022/09/25 03:09:54;;;;;;;2.40;1.73;;;10.20;99.90;;;;;;5092404;28;20021;-42
2022/09/25 03:12:19;;;;;;;1.42;1.33;;;10.30;99.90;;;;;;5093862;28;20032;-41
2022/09/25 03:14:45;;;;;;;5.20;1.98;;;10.20;99.90;;;;;;5086544;28;20038;-39
2022/09/25 03:17:12;;;;;;;5.82;1.98;;;10.20;99.90;;;;;;5081799;28;20056;-41
2022/09/25 03:19:38;;;;;;;2.65;1.88;;;10.20;99.90;;;;;;5084868;28;20039;-39
2022/09/25 03:22:04;;;;;;;4.22;2.45;;;10.20;99.90;;;;;;5074740;28;20028;-39
2022/09/25 03:24:30;;;;;;;4.72;1.95;;;10.20;99.90;;;;;;5077903;28;20480;-51
2022/09/25 03:26:55;;;;;;;10.38;2.47;;;10.20;99.90;;;;;;5092861;28;20171;-35
2022/09/25 03:29:21;;;;;;;3.70;2.38;;;10.20;99.90;;;;;;5086435;28;20407;-41
2022/09/25 03:31:47;;;;;;;3.70;2.30;;;10.20;99.90;;;;;;5086654;28;20070;-40
2022/09/25 03:34:15;;;;;;;5.10;2.00;;;10.20;99.90;;;;;;5074005;28;20028;-40
2022/09/25 03:36:41;;;;;;;7.55;2.08;;;10.20;99.90;;;;;;5078803;28;20084;-36
2022/09/25 03:39:09;;;;;;;5.25;2.33;;;10.20;99.90;;;;;;5093127;28;20487;-41
2022/09/25 03:41:35;;;;;;;;;;;10.10;99.90;;;;;;5087796;28;20025;-40
2022/09/25 03:44:01;;;;;;;5.32;2.50;;;10.20;99.90;;;;;;5078244;28;19930;-43
2022/09/25 03:46:32;;;;;;;5.90;2.78;;;10.20;99.90;;;;;;5086459;28;20517;-40
2022/09/25 03:48:58;;;;;;;5.47;3.00;;;10.20;99.90;;;;;;5093672;28;20479;-44
2022/09/25 03:51:26;;;;;;;7.15;3.80;;;10.30;99.90;;;;;;5079764;28;20017;-38
2022/09/25 03:53:52;;;;;;;7.07;3.13;;;10.30;99.90;;;;;;5087800;28;20054;-37
2022/09/25 03:56:22;;;;;;;4.72;2.85;;;10.30;99.90;;;;;;5076379;28;20036;-36
2022/09/25 03:58:50;;;;;;;6.05;3.67;;;10.40;99.90;;;;;;5085885;28;20067;-38
2022/09/25 04:01:16;;;;;;;2.75;2.55;;;10.40;99.90;;;;;;5091307;28;20418;-34
2022/09/25 04:03:46;;;;;;;5.55;2.70;;;10.40;99.90;;;;;;5081269;28;20112;-40
2022/09/25 04:06:13;;;;;;;7.28;3.17;;;10.40;99.90;;;;;;5088699;28;20027;-40
2022/09/25 04:08:39;;;;;;;7.50;3.50;;;10.40;99.90;;;;;;5083049;28;20023;-35
2022/09/25 04:11:05;;;;;;;5.40;3.10;;;10.40;99.90;;;;;;5089582;28;20528;-38
2022/09/25 04:13:35;;;;;;;6.28;3.47;;;10.40;99.90;;;;;;5080623;28;20023;-45
2022/09/25 04:16:02;;;;;;;2.88;2.63;;;10.40;99.90;;;;;;5091241;28;20403;-37
2022/09/25 04:18:30;;;;;;;3.85;2.88;;;10.40;99.90;;;;;;5080409;28;20027;-37
2022/09/25 04:21:07;;;;;;;5.57;3.65;;;10.40;99.90;;;;;;5083495;28;20064;-40
2022/09/25 04:23:33;;;;;;;6.63;2.75;;;10.40;99.90;;;;;;5080032;28;20047;-38
2022/09/25 04:25:59;;;;;;;6.30;3.45;;;10.30;99.90;;;;;;5084306;28;20099;-39
2022/09/25 04:28:25;;;;;;;7.10;3.95;;;10.30;99.90;;;;;;5085067;28;20056;-41
2022/09/25 04:30:51;;;;;;;4.22;2.42;;;10.30;99.90;;;;;;5083559;28;20032;-40
2022/09/25 04:36:03;;;;;;;5.30;2.50;;;10.30;99.90;;;;;;5075561;28;20063;-39
2022/09/25 04:38:31;;;;;;;4.38;2.88;;;10.30;99.90;;;;;;5082069;28;20032;-38
2022/09/25 04:40:59;;;;;;;7.28;2.53;;;10.20;99.90;;;;;;5060634;28;20081;-38
2022/09/25 04:43:26;;;;;;;4.00;2.40;;;10.20;99.90;;;;;;5079261;28;20031;-33
2022/09/25 04:45:52;;;;;;;5.95;2.40;;;10.20;99.90;;;;;;5087317;28;20029;-40
2022/09/25 04:48:18;;;;;;;6.32;2.92;;;10.20;99.90;;;;;;5090147;28;20061;-36
2022/09/25 04:50:49;;;;;;;4.68;3.22;;;10.10;99.90;;;;;;5069644;28;20035;-34
2022/09/25 04:53:15;;;;;;;2.75;2.30;;;10.10;99.90;;;;;;5091067;28;20114;-38
2022/09/25 04:55:41;;;;;;;6.30;2.60;;;10.10;99.90;;;;;;5091676;28;20059;-37
2022/09/25 04:58:08;;;;;;;3.28;2.85;;;10.10;99.90;;;;;;5083928;28;20020;-45
2022/09/25 05:00:35;;;;;;;4.30;3.03;;;10.10;99.90;;;;;;5079947;28;20036;-37
2022/09/25 05:03:02;;;;;;;5.93;3.00;;;10.10;99.90;;;;;;5073318;28;20031;-31
2022/09/25 05:05:29;;;;;;;3.75;2.40;;;10.00;99.90;;;;;;5090678;28;20455;-31
2022/09/25 05:08:00;;;;;;;4.47;2.67;;;10.00;99.90;;;;;;5073921;28;20475;-31
2022/09/25 05:10:29;;;;;;;4.68;2.10;;;10.00;99.90;;;;;;5078104;28;20536;-31
2022/09/25 05:12:57;;;;;;;5.07;2.42;;;10.00;99.90;;;;;;5075843;28;20039;-60
2022/09/25 05:15:22;;;;;;;;;;;10.00;99.90;;;;;;5058393;28;20032;-36
2022/09/25 05:17:48;;;;;;;4.38;2.13;;;10.00;99.90;;;;;;5056801;28;19958;-38
2022/09/25 05:20:14;;;;;;;5.20;2.47;;;9.90;99.90;;;;;;5084620;28;20107;-36
2022/09/25 05:22:39;;;;;;;3.13;2.05;;;9.90;99.90;;;;;;5077170;28;20128;-40
2022/09/25 05:25:05;;;;;;;5.45;3.05;;;9.90;99.90;;;;;;5072643;28;20041;-39
2022/09/25 05:27:33;;;;;;;5.75;2.60;;;9.90;99.90;;;;;;5083437;28;20507;-33
2022/09/25 05:30:02;;;;;;;4.55;2.28;;;9.90;99.90;;;;;;5091141;28;20031;-35
2022/09/25 05:32:28;;;;;;;2.63;2.20;;;9.90;99.90;;;;;;5085289;28;20084;-36
2022/09/25 05:34:54;;;;;;;5.55;2.47;;;9.90;99.90;;;;;;5072113;28;20432;-41
2022/09/25 05:37:19;;;;;;;8.90;2.70;;;9.90;99.90;;;;;;5084201;28;20028;-40
2022/09/25 05:39:45;;;;;;;5.57;2.58;;;9.90;99.90;;;;;;5090460;28;20173;-34
2022/09/25 05:42:10;;;;;;;5.88;2.38;;;9.90;99.90;;;;;;5091934;28;20472;-38
2022/09/25 05:44:38;;;;;;;5.53;2.80;;;9.90;99.90;;;;;;5083710;28;20029;-37
2022/09/25 05:49:48;;;;;;;8.57;2.88;;;9.90;99.90;;;;;;5073614;28;20031;-35
2022/09/25 05:52:13;;;;;;;5.80;3.10;;;10.00;99.90;;;;;;5089460;28;20129;-35
2022/09/25 05:54:39;;;;;;;7.78;2.50;;;10.00;99.90;;;;;;5088966;28;20020;-38
2022/09/25 05:57:05;;;;;;;5.22;2.10;;;10.00;99.90;;;;;;5087800;28;20111;-38
2022/09/25 05:59:31;;;;;;;5.32;2.67;;;10.00;99.90;;;;;;5079041;28;20567;-41
2022/09/25 06:01:56;;;;;;;3.22;2.35;;;10.00;99.90;;;;;;5086709;28;20024;-52
2022/09/25 06:04:22;;;;;;;4.00;2.55;;;10.00;99.90;;;;;;5079257;28;20024;-34
2022/09/25 06:06:47;;;;;;;3.65;2.47;;;10.00;99.90;;;;;;5077415;28;20476;-37
2022/09/25 06:09:13;;;;;;;4.55;3.03;;;10.00;99.90;;;;;;5079678;28;20089;-39
2022/09/25 06:11:39;;;;;;;2.75;2.13;;;10.00;99.90;;;;;;5085819;28;20073;-34
2022/09/25 06:14:05;;;;;;;3.45;2.45;;;10.10;99.90;;;;;;5088011;28;20533;-38
2022/09/25 06:16:30;;;;;;;5.50;2.58;;;10.10;99.90;;;;;;5078782;28;20112;-35
2022/09/25 06:18:56;;;;;;;6.78;2.92;;;10.10;99.90;;;;;;5089332;28;20028;-43
2022/09/25 06:21:21;;;;;;;6.90;3.00;;;10.10;99.90;;;;;;5086620;28;20028;-37
2022/09/25 06:23:48;;;;;;;2.53;2.33;;;10.20;99.90;;;;;;5090219;28;20068;-38
2022/09/25 06:26:13;;;;;;;10.68;3.65;;;10.20;99.90;;;;;;5095615;28;20025;-36
2022/09/25 06:28:39;;;;;;;9.43;2.78;;;10.30;99.90;;;;;;5092406;28;20077;-34
2022/09/25 06:31:05;;;;;;;3.45;2.60;;;10.30;99.90;;;;;;5088156;28;20060;-39
2022/09/25 06:33:31;;;;;;;6.40;2.95;;;10.40;99.90;;;;;;5090468;28;20487;-37
2022/09/25 06:35:57;;;;;;;5.57;2.80;;;10.40;99.90;;;;;;5082032;28;20032;-37
2022/09/25 06:38:23;;;;;;;7.22;3.63;;;10.50;99.90;;;;;;5077262;28;20035;-38
2022/09/25 06:40:48;;;;;;;6.25;2.92;;;10.60;99.90;;;;;;5082150;28;20027;-40
2022/09/25 06:43:15;;;;;;;6.47;2.75;;;10.70;99.90;;;;;;5083933;28;20024;-42
2022/09/25 06:45:41;;;;;;;9.07;3.10;;;10.80;99.90;;;;;;5089202;28;20024;-36
2022/09/25 06:48:11;;;;;;;5.90;2.78;;;11.00;99.90;;;;;;5069107;28;20138;-35
2022/09/25 06:50:43;;;;;;;4.32;2.35;;;11.10;99.90;;;;;;5087897;28;20032;-37
2022/09/25 06:53:10;;;;;;;5.03;2.88;;;11.20;99.90;;;;;;5064030;28;20039;-37
2022/09/25 06:55:36;;;;;;;7.57;2.92;;;11.30;99.90;;;;;;5077609;28;20508;-37
2022/09/25 06:58:04;;;;;;;2.92;2.55;;;11.40;99.90;;;;;;5087431;28;20024;-42
2022/09/25 07:00:31;;;;;;;5.35;2.72;;;11.50;99.90;;;;;;5090013;28;20024;-37
2022/09/25 07:05:43;;;;;;;6.45;2.78;;;11.70;99.90;;;;;;5078037;28;20074;-39
2022/09/25 07:08:12;;;;;;;8.13;2.80;;;11.80;99.90;;;;;;5090425;28;20020;-35
2022/09/25 07:10:38;;;;;;;5.45;2.83;;;12.00;99.90;;;;;;5086484;28;20392;-35
2022/09/25 07:13:04;;;;;;;6.45;2.85;;;12.00;99.90;;;;;;5085785;28;20024;-39
2022/09/25 07:15:30;;;;;;;6.15;2.38;;;12.20;99.90;;;;;;5093275;28;20086;-33
2022/09/25 07:17:55;;;;;;;3.20;2.20;;;12.30;99.90;;;;;;5095109;28;20103;-33
2022/09/25 07:20:21;;;;;;;3.00;2.03;;;12.30;99.90;;;;;;5090453;28;20031;-38
2022/09/25 07:22:47;;;;;;;6.32;2.05;;;12.40;99.90;;;;;;5074851;28;20025;-40
2022/09/25 07:25:13;;;;;;;4.32;2.30;;;12.40;99.90;;;;;;5079728;28;20020;-47
2022/09/25 07:27:38;;;;;;;2.80;1.85;;;12.50;99.90;;;;;;5088534;28;20468;-41
2022/09/25 07:30:07;;;;;;;1.92;1.30;;;12.60;99.90;;;;;;5084532;28;20028;-37
2022/09/25 07:32:33;;;;;;;2.53;1.30;;;12.60;99.90;;;;;;5088395;28;20682;-36
2022/09/25 07:34:59;;;;;;;3.63;1.17;;;12.70;99.90;;;;;;5083186;28;20061;-34
2022/09/25 07:37:24;;;;;;;6.40;1.23;;;12.80;99.90;;;;;;5089604;28;20028;-58
2022/09/25 07:39:50;;;;;;;10.90;1.30;;;12.80;99.90;;;;;;5090866;28;20464;-45
2022/09/25 07:42:16;;;;;;;3.40;1.48;;;12.90;99.90;;;;;;5080226;28;20093;-40
2022/09/25 07:44:42;;;;;;;4.88;1.33;;;13.00;99.90;;;;;;5087389;28;20461;-39
2022/09/25 07:47:08;;;;;;;2.50;1.17;;;13.10;99.90;;;;;;5084253;28;20032;-38
2022/09/25 07:49:33;;;;;;;2.42;1.30;;;13.10;99.90;;;;;;5089203;28;20480;-39
2022/09/25 07:52:00;;;;;;;10.30;1.60;;;13.20;99.90;;;;;;5073861;28;20036;-35
2022/09/25 07:54:26;;;;;;;3.05;1.25;;;13.30;99.90;;;;;;5074093;28;20025;-40
2022/09/25 07:56:51;;;;;;;6.85;1.80;;;13.40;99.90;;;;;;5083225;28;20491;-38
2022/09/25 07:59:17;;;;;;;3.10;1.15;;;13.50;99.90;;;;;;5093022;28;20028;-39
2022/09/25 08:01:42;;;;;;;4.10;1.08;;;13.70;99.90;;;;;;5076149;28;20024;-38
2022/09/25 08:04:08;;;;;;;3.00;1.00;;;13.90;99.90;;;;;;5076225;28;20400;-42
2022/09/25 08:06:34;;;;;;;4.90;1.23;;;14.00;99.90;;;;;;5073921;28;20082;-40
2022/09/25 08:09:00;;;;;;;3.67;0.90;;;14.20;99.90;;;;;;5080899;28;20571;-35
2022/09/25 08:11:27;;;;;;;5.13;1.20;;;14.30;99.90;;;;;;5086242;28;20347;-41
2022/09/25 08:13:53;;;;;;;1.65;0.93;;;14.50;99.90;;;;;;5087137;28;20032;-36
2022/09/25 08:16:23;;;;;;;4.47;0.90;;;14.70;99.90;;;;;;5074000;28;20058;-35
2022/09/25 08:18:49;;;;;;;3.83;0.95;;;14.70;99.90;;;;;;5077095;28;20396;-46
2022/09/25 08:21:17;;;;;;;7.68;1.10;;;14.70;99.90;;;;;;5080806;28;20028;-37
2022/09/25 08:23:51;;;;;;;3.60;0.95;;;14.70;99.90;;;;;;5093655;28;20510;-36
2022/09/25 08:26:19;;;;;;;1.05;0.60;;;14.80;99.90;;;;;;5093279;28;20520;-39
2022/09/25 08:28:45;;;;;;;3.33;0.90;;;14.90;99.90;;;;;;5069954;28;20134;-35
2022/09/25 08:31:13;;;;;;;3.20;0.70;;;14.90;99.90;;;;;;5068063;28;20048;-40
2022/09/25 08:33:39;;;;;;;;;;;14.90;99.90;;;;;;5089501;28;20024;-34
2022/09/25 08:36:05;;;;;;;4.55;1.27;;;14.90;99.90;;;;;;5093494;28;19904;-34
2022/09/25 08:38:34;;;;;;;3.22;1.13;;;14.90;99.90;;;;;;5084196;28;20032;-38
2022/09/25 08:41:17;;;;;;;3.05;0.47;;;14.90;99.90;;;;;;5079747;28;20025;-35
2022/09/25 08:44:05;;;;;;;3.70;0.60;;;15.00;99.90;;;;;;5086805;28;20035;-39
2022/09/25 08:49:25;;;;;;;1.98;0.60;;;15.30;99.90;;;;;;5083917;28;20395;-47
2022/09/25 08:51:53;;;;;;;2.13;0.50;;;15.60;99.90;;;;;;5090695;28;20547;-41
2022/09/25 08:54:24;;;;;;;2.30;0.80;;;15.70;99.90;;;;;;5085678;28;20020;-39
2022/09/25 08:56:58;;;;;;;2.70;0.70;;;15.90;99.90;;;;;;5083188;28;20025;-40
2022/09/25 08:59:27;;;;;;;4.85;0.85;;;16.10;99.90;;;;;;5084023;28;20034;-40
2022/09/25 09:01:58;;;;;;;2.25;0.65;;;16.10;99.90;;;;;;5060187;28;20118;-39
2022/09/25 09:04:51;;;;;;;3.40;0.70;;;16.10;99.90;;;;;;5076731;28;20109;-35
2022/09/25 09:07:37;;;;;;;1.10;0.95;;;16.00;99.90;;;;;;5070309;28;20042;-41
2022/09/25 09:10:07;;;;;;;4.18;0.98;;;15.90;99.90;;;;;;5085884;28;20059;-38
2022/09/25 09:12:39;;;;;;;4.30;1.98;;;15.80;99.90;;;;;;5078638;28;20191;-40
2022/09/25 09:15:30;;;;;;;3.17;0.90;;;15.70;99.90;;;;;;5081140;28;20016;-36
2022/09/25 09:18:01;;;;;;;2.78;0.95;;;15.70;99.90;;;;;;5077778;28;20044;-35
2022/09/25 09:20:42;;;;;;;8.80;0.88;;;15.70;99.90;;;;;;5079056;28;20056;-43
2022/09/25 09:23:15;;;;;;;7.07;1.30;;;15.50;99.90;;;;;;5077435;28;20040;-37
2022/09/25 09:25:54;;;;;;;3.28;0.88;;;15.40;99.90;;;;;;5080547;28;20024;-42
2022/09/25 09:28:52;;;;;;;9.75;1.20;;;15.40;99.90;;;;;;5064200;28;20017;-34
2022/09/25 09:31:43;;;;;;;6.32;0.85;;;15.40;99.90;;;;;;5075760;28;20033;-34
2022/09/25 09:34:17;;;;;;;6.10;1.02;;;15.30;99.90;;;;;;5064350;28;20039;-41
2022/09/25 09:37:14;;;;;;;2.63;0.80;;;15.20;99.90;;;;;;5077067;28;20032;-36
2022/09/25 09:40:12;;;;;;;5.82;0.90;;;15.20;99.90;;;;;;5093409;28;20521;-38
2022/09/25 09:42:52;;;;;;;2.17;0.60;;;15.30;99.90;;;;;;5049698;28;20601;-34
2022/09/25 09:45:45;;;;;;;3.47;0.73;;;15.40;99.90;;;;;;5053400;28;20044;-36
2022/09/25 09:48:32;;;;;;;1.80;0.75;;;15.40;99.90;;;;;;5093163;28;20472;-38
2022/09/25 09:51:08;;;;;;;5.55;0.65;;;15.40;99.90;;;;;;5091640;28;20032;-35
2022/09/25 09:53:42;;;;;;;4.90;0.77;;;15.50;99.90;;;;;;5091201;28;20040;-36
2022/09/25 09:56:17;;;;;;;12.13;1.67;;;15.70;99.90;;;;;;5068077;28;20029;-39
2022/09/25 09:58:51;;;;;;;1.75;0.88;;;15.90;99.90;;;;;;5077936;28;20031;-40
2022/09/25 10:01:20;;;;;;;0.63;0.35;;;15.90;99.90;;;;;;5095173;28;20028;-40
2022/09/25 10:03:52;;;;;;;5.40;1.02;;;16.10;99.90;;;;;;5094979;28;20024;-37
2022/09/25 10:06:31;;;;;;;2.15;0.82;;;16.10;99.90;;;;;;5060764;28;20131;-40
2022/09/25 10:08:56;;;;;;;1.70;0.57;;;16.20;99.90;;;;;;5079612;28;20024;-39
2022/09/25 10:11:22;;;;;;;2.47;0.60;;;16.20;99.90;;;;;;5091143;28;20414;-37
2022/09/25 10:13:48;;;;;;;1.25;0.50;;;16.40;99.90;;;;;;5093267;28;20032;-35
2022/09/25 10:16:16;;;;;;;3.05;0.60;;;16.50;99.90;;;;;;5093437;28;20036;-41
2022/09/25 10:18:51;;;;;;;8.50;0.60;;;16.70;99.90;;;;;;5090335;28;20064;-38
2022/09/25 10:21:23;;;;;;;12.10;0.93;;;16.70;99.90;;;;;;5086756;28;20131;-36
2022/09/25 10:23:49;;;;;;;4.53;0.70;;;16.70;99.90;;;;;;5093607;28;20109;-37
2022/09/25 10:26:22;;;;;;;1.60;0.30;;;16.80;99.90;;;;;;5094428;28;20100;-35
2022/09/25 10:28:48;;;;;;;4.60;0.75;;;16.80;99.90;;;;;;5083425;28;20568;-37
2022/09/25 10:31:16;;;;;;;1.25;0.63;;;16.90;99.90;;;;;;5093927;28;20039;-49
2022/09/25 10:33:42;;;;;;;;;;;17.00;99.90;;;;;;5093644;28;20664;-47
2022/09/25 10:36:07;;;;;;;0.70;0.52;;;16.90;99.90;;;;;;5090495;28;19916;-42
2022/09/25 10:38:38;;;;;;;3.00;0.70;;;16.70;99.90;;;;;;5079027;28;20028;-38
2022/09/25 10:41:12;;;;;;;10.70;2.55;;;16.40;99.90;;;;;;5096094;28;20028;-36
2022/09/25 10:43:53;;;;;;;1.40;0.52;;;16.20;99.90;;;;;;5090034;28;20437;-37
2022/09/25 10:52:08;;;;;;;1.45;0.70;;;16.20;99.90;;;;;;5086831;28;20063;-40
2022/09/25 10:54:35;;;;;;;;;;;16.40;99.90;;;;;;5086571;28;20549;-37
2022/09/25 10:57:12;;;;;;;2.40;0.60;;;16.50;99.90;;;;;;5080553;28;20386;-38
2022/09/25 10:59:39;;;;;;;2.15;0.85;;;16.70;99.90;;;;;;5084214;28;20526;-35
2022/09/25 11:02:18;;;;;;;3.10;0.75;;;16.90;99.90;;;;;;5092786;28;20514;-36
2022/09/25 11:04:45;;;;;;;3.25;0.85;;;17.00;99.90;;;;;;5089169;28;20036;-39
2022/09/25 11:07:17;;;;;;;5.30;1.48;;;17.10;99.90;;;;;;5080333;28;20031;-42
2022/09/25 11:09:43;;;;;;;3.13;0.50;;;17.20;99.90;;;;;;5070432;28;20025;-32
2022/09/25 11:12:22;;;;;;;2.42;0.40;;;17.30;99.90;;;;;;5085186;28;20770;-34
2022/09/25 11:15:01;;;;;;;2.47;0.52;;;17.40;99.90;;;;;;5078734;28;20058;-39
2022/09/25 11:17:30;;;;;;;4.85;0.60;;;17.50;99.90;;;;;;5085119;28;20422;-35
2022/09/25 11:20:38;;;;;;;3.55;0.60;;;17.60;99.90;;;;;;5076665;28;20028;-31
2022/09/25 11:23:12;;;;;;;2.05;0.68;;;17.70;99.90;;;;;;5081366;28;20028;-41
2022/09/25 11:25:52;;;;;;;1.30;0.30;;;17.80;99.90;;;;;;5081745;28;20553;-34
2022/09/25 11:28:40;;;;;;;1.25;0.38;;;17.80;99.90;;;;;;5073595;28;20480;-38
2022/09/25 11:31:48;;;;;;;1.58;0.30;;;17.80;99.90;;;;;;5087254;28;20054;-34
2022/09/25 11:34:30;;;;;;;1.67;0.43;;;17.50;99.90;;;;;;5078175;28;20088;-36
2022/09/25 11:36:58;;;;;;;2.53;0.55;;;17.10;99.90;;;;;;5078091;28;20024;-35
2022/09/25 11:42:35;;;;;;;1.70;0.47;;;17.10;99.90;;;;;;5085103;28;20039;-33
2022/09/25 11:45:35;;;;;;;1.42;0.47;;;17.30;99.90;;;;;;5084470;28;20024;-37
2022/09/25 11:48:11;;;;;;;1.55;0.45;;;17.60;99.90;;;;;;5085045;28;20367;-35
2022/09/25 11:50:59;;;;;;;2.20;0.50;;;17.80;99.90;;;;;;5087559;28;20029;-34
2022/09/25 11:54:05;;;;;;;1.00;0.20;;;17.90;99.90;;;;;;5082397;28;20488;-38
2022/09/25 11:56:49;;;;;;;0.70;0.60;;;18.20;99.90;;;;;;5074948;28;20383;-38
2022/09/25 11:59:14;;;;;;;3.90;0.55;;;18.40;99.90;;;;;;5070584;28;20055;-36
2022/09/25 12:01:49;;;;;;;1.95;0.20;;;18.50;99.90;;;;;;5074723;28;20059;-34
2022/09/25 12:04:26;;;;;;;2.97;0.52;;;18.30;99.90;;;;;;5087889;28;20036;-37
2022/09/25 12:07:12;;;;;;;0.45;0.45;;;18.00;99.90;;;;;;5075191;28;20024;-37
2022/09/25 12:10:03;;;;;;;1.75;0.50;;;17.60;99.90;;;;;;5088131;28;20035;-40
2022/09/25 12:12:36;;;;;;;2.72;0.40;;;17.30;99.90;;;;;;5079490;28;20449;-40
2022/09/25 12:15:16;;;;;;;0.95;0.40;;;17.40;99.90;;;;;;5066983;28;20105;-36
2022/09/25 12:18:09;;;;;;;4.22;0.60;;;17.70;99.90;;;;;;5060817;28;20400;-35
2022/09/25 12:20:56;;;;;;;1.83;0.65;;;18.00;99.90;;;;;;5086050;28;20024;-36
2022/09/25 12:23:22;;;;;;;;;;;18.10;99.90;;;;;;5090358;28;20488;-33
2022/09/25 12:25:54;;;;;;;2.63;0.50;;;17.90;99.90;;;;;;5083054;28;19908;-32
2022/09/25 12:28:45;;;;;;;1.38;0.20;;;17.70;99.90;;;;;;5093766;28;20508;-36
2022/09/25 12:31:32;;;;;;;3.00;0.30;;;17.50;99.90;;;;;;5090081;28;20036;-33
2022/09/25 12:34:18;;;;;;;2.80;0.38;;;17.50;99.90;;;;;;5087274;28;20362;-36
2022/09/25 12:36:53;;;;;;;2.10;0.40;;;17.90;99.90;;;;;;5084651;28;20488;-41
2022/09/25 12:39:28;;;;;;;2.20;0.43;;;18.20;99.90;;;;;;5082779;28;20021;-35
2022/09/25 12:42:11;;;;;;;1.98;0.38;;;18.20;99.90;;;;;;5089836;28;20032;-34
2022/09/25 12:44:50;;;;;;;2.72;0.55;;;18.00;99.90;;;;;;5086172;28;20024;-37
2022/09/25 12:47:33;;;;;;;2.22;0.32;;;17.70;99.90;;;;;;5085664;28;20085;-39
2022/09/25 12:50:08;;;;;;;4.05;0.45;;;17.40;99.90;;;;;;5083086;28;20105;-49
2022/09/25 12:52:43;;;;;;;1.52;0.40;;;17.10;99.90;;;;;;5088787;28;20354;-37
2022/09/25 12:55:21;;;;;;;1.05;0.98;;;16.80;99.90;;;;;;5076632;28;20487;-44
2022/09/25 12:57:53;;;;;;;5.65;0.73;;;16.40;99.90;;;;;;5089822;28;20036;-42
2022/09/25 13:00:22;;;;;;;0.22;0.22;;;16.20;99.90;;;;;;5092476;28;20024;-39
2022/09/25 13:03:00;;;;;;;4.60;0.40;;;16.00;99.90;;;;;;5092366;28;20037;-37
2022/09/25 13:05:44;;;;;;;1.58;0.30;;;15.80;99.90;;;;;;5091185;28;20020;-35
2022/09/25 13:08:18;;;;;;;3.30;0.70;;;15.70;99.90;;;;;;5090434;28;20042;-44
2022/09/25 13:10:58;;;;;;;4.03;0.40;;;15.60;99.90;;;;;;5090415;28;20064;-38
2022/09/25 13:13:29;;;;;;;1.13;0.32;;;15.50;99.90;;;;;;5077323;28;20498;-35
2022/09/25 13:15:59;;;;;;;1.55;0.57;;;15.50;99.90;;;;;;5093063;28;20024;-39
2022/09/25 13:18:28;;;;;;;0.10;0.10;;;15.50;99.90;;;;;;5090051;28;20495;-38
2022/09/25 13:21:17;;;;;;;2.28;0.43;;;15.50;99.90;;;;;;5088470;28;20074;-37
2022/09/25 13:23:48;;;;;;;1.70;0.52;;;15.50;99.90;;;;;;5091323;28;20097;-43
2022/09/25 13:26:17;;;;;;;0.65;0.40;;;15.50;99.90;;;;;;5085727;28;20075;-35
2022/09/25 13:28:56;;;;;;;3.65;0.45;;;15.50;99.90;;;;;;5090220;28;20472;-34
2022/09/25 13:31:25;;;;;;;0.45;0.30;;;15.40;99.90;;;;;;5090720;28;20016;-35
2022/09/25 13:34:01;;;;;;;0.93;0.50;;;15.20;99.90;;;;;;5072319;28;20031;-38